createdAt,value
2022-12-26T00:00:25.725Z,7.09
2022-12-26T00:01:26.382Z,7.04
2022-12-26T00:02:27.167Z,7.36
2022-12-26T00:03:28.018Z,7.30
2022-12-26T00:04:49.558Z,7.14
2022-12-26T00:05:30.377Z,7.04
2022-12-26T00:06:30.035Z,7.73
2022-12-26T00:07:30.745Z,7.41
2022-12-26T00:08:31.444Z,7.90
2022-12-26T00:09:32.157Z,7.36
2022-12-26T00:10:32.869Z,7.41
2022-12-26T00:11:33.576Z,7.63
2022-12-26T00:12:34.279Z,7.57
2022-12-26T00:13:38.614Z,8.16
2022-12-26T00:14:36.589Z,7.95
2022-12-26T00:15:36.312Z,8.11
2022-12-26T00:16:37.390Z,7.68
2022-12-26T00:17:37.568Z,8.11
2022-12-26T00:18:38.273Z,8.11
2022-12-26T00:19:38.977Z,7.73
2022-12-26T00:20:39.703Z,7.63
2022-12-26T00:21:40.403Z,8.06
2022-12-26T00:22:41.115Z,7.73
2022-12-26T00:23:41.825Z,8.16
2022-12-26T00:24:42.526Z,8.75
2022-12-26T00:25:43.236Z,9.24
2022-12-26T00:26:43.960Z,12.19
2022-12-26T00:27:44.671Z,15.74
2022-12-26T00:28:45.364Z,18.15
2022-12-26T00:29:46.076Z,19.82
2022-12-26T00:30:46.912Z,20.73
2022-12-26T00:31:47.905Z,20.57
2022-12-26T00:32:48.072Z,20.68
2022-12-26T00:33:48.797Z,21.97
2022-12-26T00:34:49.502Z,20.73
2022-12-26T00:35:50.231Z,21.59
2022-12-26T00:36:51.322Z,21.75
2022-12-26T00:37:51.536Z,23.96
2022-12-26T00:38:52.262Z,28.20
2022-12-26T00:39:52.948Z,28.95
2022-12-26T00:40:53.654Z,29.81
2022-12-26T00:41:54.373Z,29.22
2022-12-26T00:42:55.086Z,29.81
2022-12-26T00:43:55.781Z,29.76
2022-12-26T00:44:56.508Z,30.19
2022-12-26T00:45:57.243Z,29.76
2022-12-26T00:46:57.949Z,31.37
2022-12-26T00:47:58.627Z,33.46
2022-12-26T00:48:59.337Z,32.92
2022-12-26T00:50:13.028Z,34.64
2022-12-26T00:51:01.669Z,35.77
2022-12-26T00:52:01.370Z,34.11
2022-12-26T00:53:02.086Z,34.64
2022-12-26T00:54:02.779Z,34.48
2022-12-26T00:55:03.486Z,35.40
2022-12-26T00:56:04.211Z,35.83
2022-12-26T00:57:05.325Z,35.83
2022-12-26T00:58:05.521Z,35.45
2022-12-26T00:59:06.229Z,33.46
2022-12-26T01:00:06.935Z,34.16
2022-12-26T01:01:07.886Z,33.30
2022-12-26T01:02:08.926Z,31.31
2022-12-26T01:03:09.395Z,32.55
2022-12-26T01:04:10.037Z,31.21
2022-12-26T01:05:10.745Z,29.17
2022-12-26T01:06:11.465Z,29.54
2022-12-26T01:07:12.164Z,29.81
2022-12-26T01:08:23.343Z,28.47
2022-12-26T01:09:14.470Z,29.00
2022-12-26T01:10:14.180Z,28.41
2022-12-26T01:11:14.893Z,29.38
2022-12-26T01:12:15.822Z,28.84
2022-12-26T01:13:16.529Z,28.41
2022-12-26T01:14:17.239Z,30.35
2022-12-26T01:15:17.946Z,32.12
2022-12-26T01:16:18.760Z,32.92
2022-12-26T01:17:19.445Z,36.79
2022-12-26T01:18:20.230Z,37.97
2022-12-26T01:19:20.924Z,37.38
2022-12-26T01:20:21.629Z,37.92
2022-12-26T01:21:22.360Z,37.49
2022-12-26T01:22:23.323Z,38.62
2022-12-26T01:23:24.043Z,37.44
2022-12-26T01:24:24.755Z,37.97
2022-12-26T01:25:25.461Z,36.31
2022-12-26T01:26:26.169Z,34.54
2022-12-26T01:27:27.328Z,33.46
2022-12-26T01:28:27.531Z,33.09
2022-12-26T01:29:28.241Z,31.90
2022-12-26T01:30:28.955Z,31.31
2022-12-26T01:31:29.768Z,30.99
2022-12-26T01:32:30.444Z,29.38
2022-12-26T01:33:31.150Z,28.79
2022-12-26T01:34:31.856Z,28.79
2022-12-26T01:35:32.564Z,28.95
2022-12-26T01:36:33.296Z,28.31
2022-12-26T01:37:33.985Z,27.50
2022-12-26T01:38:34.696Z,22.88
2022-12-26T01:39:35.412Z,21.16
2022-12-26T01:40:36.119Z,19.66
2022-12-26T01:41:36.832Z,19.93
2022-12-26T01:42:37.831Z,19.28
2022-12-26T01:43:38.039Z,18.91
2022-12-26T01:44:38.743Z,18.69
2022-12-26T01:45:39.480Z,18.58
2022-12-26T01:46:40.173Z,18.15
2022-12-26T01:47:41.446Z,18.53
2022-12-26T01:48:41.580Z,19.44
2022-12-26T01:49:42.295Z,20.30
2022-12-26T01:50:43.007Z,20.57
2022-12-26T01:51:43.725Z,20.79
2022-12-26T01:52:44.435Z,20.79
2022-12-26T01:53:45.150Z,20.79
2022-12-26T01:54:45.859Z,19.87
2022-12-26T01:55:46.557Z,19.77
2022-12-26T01:56:47.277Z,19.77
2022-12-26T01:57:48.330Z,18.64
2022-12-26T01:58:48.543Z,18.53
2022-12-26T01:59:49.254Z,18.15
2022-12-26T02:00:50.019Z,18.32
2022-12-26T02:01:50.907Z,18.42
2022-12-26T02:02:51.881Z,18.10
2022-12-26T02:03:52.633Z,17.83
2022-12-26T02:04:53.340Z,17.56
2022-12-26T02:05:54.045Z,17.19
2022-12-26T02:06:54.777Z,17.08
2022-12-26T02:07:55.471Z,17.62
2022-12-26T02:08:56.192Z,17.67
2022-12-26T02:09:56.887Z,17.29
2022-12-26T02:10:57.594Z,16.76
2022-12-26T02:12:36.265Z,16.81
2022-12-26T02:13:00.331Z,15.63
2022-12-26T02:13:59.541Z,15.79
2022-12-26T02:15:00.256Z,15.74
2022-12-26T02:16:00.968Z,15.20
2022-12-26T02:17:01.745Z,15.09
2022-12-26T02:18:02.459Z,14.39
2022-12-26T02:19:03.152Z,13.96
2022-12-26T02:20:03.889Z,13.37
2022-12-26T02:21:04.570Z,12.57
2022-12-26T02:22:05.284Z,11.87
2022-12-26T02:23:05.992Z,11.71
2022-12-26T02:24:06.679Z,11.98
2022-12-26T02:25:07.395Z,11.01
2022-12-26T02:26:08.112Z,11.01
2022-12-26T02:27:08.797Z,11.01
2022-12-26T02:28:09.830Z,10.63
2022-12-26T02:29:10.054Z,10.26
2022-12-26T02:30:10.747Z,9.56
2022-12-26T02:31:11.452Z,9.56
2022-12-26T02:32:12.303Z,10.26
2022-12-26T02:33:12.975Z,9.99
2022-12-26T02:34:13.710Z,10.21
2022-12-26T02:35:14.408Z,10.10
2022-12-26T02:36:15.131Z,9.56
2022-12-26T02:37:15.838Z,9.35
2022-12-26T02:38:16.525Z,9.56
2022-12-26T02:39:43.480Z,9.83
2022-12-26T02:40:18.847Z,9.29
2022-12-26T02:41:18.556Z,9.78
2022-12-26T02:42:19.274Z,9.56
2022-12-26T02:43:19.996Z,9.88
2022-12-26T02:44:20.690Z,9.40
2022-12-26T02:45:21.399Z,9.61
2022-12-26T02:46:22.274Z,9.29
2022-12-26T02:47:22.947Z,10.21
2022-12-26T02:48:23.840Z,12.19
2022-12-26T02:49:24.547Z,13.32
2022-12-26T02:50:25.252Z,16.22
2022-12-26T02:51:25.959Z,17.83
2022-12-26T02:52:26.685Z,17.89
2022-12-26T02:53:27.847Z,18.48
2022-12-26T02:54:28.055Z,18.48
2022-12-26T02:55:28.759Z,18.53
2022-12-26T02:56:29.464Z,19.17
2022-12-26T02:57:30.181Z,17.89
2022-12-26T02:58:30.888Z,18.21
2022-12-26T02:59:53.726Z,18.48
2022-12-26T03:00:33.206Z,18.48
2022-12-26T03:01:33.022Z,18.53
2022-12-26T03:02:33.950Z,18.10
2022-12-26T03:03:34.704Z,18.53
2022-12-26T03:04:35.421Z,17.94
2022-12-26T03:05:36.119Z,18.10
2022-12-26T03:06:36.827Z,17.89
2022-12-26T03:07:37.551Z,18.42
2022-12-26T03:08:38.251Z,18.48
2022-12-26T03:09:38.966Z,18.96
2022-12-26T03:10:39.672Z,18.64
2022-12-26T03:11:40.377Z,20.03
2022-12-26T03:12:41.083Z,20.62
2022-12-26T03:13:41.841Z,23.69
2022-12-26T03:14:42.557Z,28.25
2022-12-26T03:15:43.259Z,28.41
2022-12-26T03:16:44.002Z,29.65
2022-12-26T03:17:44.697Z,30.24
2022-12-26T03:18:59.472Z,31.10
2022-12-26T03:19:46.970Z,30.94
2022-12-26T03:20:46.712Z,32.50
2022-12-26T03:21:47.418Z,32.92
2022-12-26T03:22:48.166Z,32.92
2022-12-26T03:23:48.863Z,32.50
2022-12-26T03:24:49.572Z,32.50
2022-12-26T03:25:50.290Z,32.01
2022-12-26T03:26:50.994Z,32.55
2022-12-26T03:27:51.697Z,31.10
2022-12-26T03:28:52.416Z,29.97
2022-12-26T03:29:53.118Z,30.13
2022-12-26T03:30:53.890Z,29.27
2022-12-26T03:31:54.555Z,29.11
2022-12-26T03:32:55.282Z,28.41
2022-12-26T03:33:55.986Z,28.84
2022-12-26T03:34:56.684Z,28.25
2022-12-26T03:35:57.393Z,28.04
2022-12-26T03:36:58.097Z,27.07
2022-12-26T03:37:58.819Z,22.34
2022-12-26T03:38:59.513Z,20.25
2022-12-26T03:40:00.222Z,20.36
2022-12-26T03:41:00.938Z,19.01
2022-12-26T03:42:01.636Z,19.39
2022-12-26T03:43:02.357Z,18.75
2022-12-26T03:44:03.351Z,18.64
2022-12-26T03:45:04.047Z,17.78
2022-12-26T03:46:04.789Z,17.89
2022-12-26T03:47:05.459Z,18.05
2022-12-26T03:48:06.180Z,17.62
2022-12-26T03:49:07.348Z,16.76
2022-12-26T03:50:07.559Z,16.81
2022-12-26T03:51:08.293Z,16.38
2022-12-26T03:52:08.987Z,15.74
2022-12-26T03:53:09.707Z,15.90
2022-12-26T03:54:10.412Z,15.36
2022-12-26T03:55:11.118Z,14.88
2022-12-26T03:56:11.828Z,14.61
2022-12-26T03:57:12.538Z,13.54
2022-12-26T03:58:13.236Z,13.37
2022-12-26T03:59:14.441Z,12.78
2022-12-26T04:00:14.588Z,12.19
2022-12-26T04:01:15.583Z,11.55
2022-12-26T04:02:16.116Z,11.55
2022-12-26T04:03:16.969Z,11.39
2022-12-26T04:04:17.614Z,10.69
2022-12-26T04:05:18.357Z,10.63
2022-12-26T04:06:19.057Z,9.99
2022-12-26T04:07:19.761Z,9.56
2022-12-26T04:08:20.502Z,9.94
2022-12-26T04:09:21.344Z,9.40
2022-12-26T04:10:22.048Z,9.35
2022-12-26T04:11:22.770Z,9.83
2022-12-26T04:12:23.467Z,9.29
2022-12-26T04:13:24.174Z,8.97
2022-12-26T04:14:24.896Z,8.97
2022-12-26T04:15:25.718Z,8.92
2022-12-26T04:16:26.397Z,9.02
2022-12-26T04:17:27.125Z,9.29
2022-12-26T04:18:27.959Z,9.08
2022-12-26T04:19:28.865Z,9.13
2022-12-26T04:20:29.565Z,8.86
2022-12-26T04:21:30.269Z,8.22
2022-12-26T04:22:31.008Z,8.16
2022-12-26T04:23:31.705Z,8.16
2022-12-26T04:24:32.403Z,8.22
2022-12-26T04:25:50.666Z,7.79
2022-12-26T04:26:34.709Z,8.00
2022-12-26T04:27:34.420Z,7.90
2022-12-26T04:28:35.124Z,8.00
2022-12-26T04:29:35.843Z,7.63
2022-12-26T04:30:36.546Z,7.41
2022-12-26T04:31:37.419Z,7.36
2022-12-26T04:32:38.094Z,7.79
2022-12-26T04:33:38.824Z,7.20
2022-12-26T04:34:39.843Z,7.68
2022-12-26T04:35:40.064Z,7.68
2022-12-26T04:36:40.759Z,7.57
2022-12-26T04:37:41.464Z,7.25
2022-12-26T04:38:42.205Z,7.09
2022-12-26T04:39:43.345Z,7.04
2022-12-26T04:40:43.557Z,7.25
2022-12-26T04:41:44.260Z,7.41
2022-12-26T04:42:44.969Z,6.77
2022-12-26T04:43:49.867Z,6.93
2022-12-26T04:44:47.361Z,6.82
2022-12-26T04:45:47.063Z,6.88
2022-12-26T04:46:47.884Z,6.66
2022-12-26T04:47:48.594Z,7.09
2022-12-26T04:48:49.325Z,7.04
2022-12-26T04:49:49.999Z,6.71
2022-12-26T04:50:50.712Z,7.14
2022-12-26T04:51:51.413Z,6.88
2022-12-26T04:52:52.116Z,6.50
2022-12-26T04:53:52.842Z,6.50
2022-12-26T04:54:53.553Z,6.23
2022-12-26T04:55:54.260Z,6.28
2022-12-26T04:56:54.968Z,6.71
2022-12-26T04:57:55.675Z,6.28
2022-12-26T04:58:56.391Z,6.71
2022-12-26T04:59:57.094Z,6.55
2022-12-26T05:00:57.802Z,6.50
2022-12-26T05:01:58.712Z,6.34
2022-12-26T05:02:59.627Z,6.07
2022-12-26T05:04:00.647Z,6.45
2022-12-26T05:05:01.346Z,5.85
2022-12-26T05:06:02.052Z,5.91
2022-12-26T05:07:02.756Z,5.91
2022-12-26T05:08:03.463Z,5.91
2022-12-26T05:09:04.185Z,5.75
2022-12-26T05:10:04.873Z,5.75
2022-12-26T05:11:05.577Z,5.26
2022-12-26T05:12:06.281Z,5.32
2022-12-26T05:13:06.987Z,5.69
2022-12-26T05:14:07.693Z,5.75
2022-12-26T05:15:08.418Z,5.10
2022-12-26T05:16:09.191Z,5.69
2022-12-26T05:17:09.902Z,5.10
2022-12-26T05:18:10.607Z,5.53
2022-12-26T05:19:11.399Z,4.89
2022-12-26T05:20:12.363Z,5.32
2022-12-26T05:21:12.688Z,5.37
2022-12-26T05:22:13.394Z,5.10
2022-12-26T05:23:14.105Z,5.10
2022-12-26T05:24:14.827Z,4.94
2022-12-26T05:25:15.856Z,5.21
2022-12-26T05:26:16.063Z,5.37
2022-12-26T05:27:16.775Z,5.32
2022-12-26T05:28:17.480Z,5.32
2022-12-26T05:29:18.186Z,5.05
2022-12-26T05:30:18.904Z,5.37
2022-12-26T05:31:19.737Z,5.32
2022-12-26T05:32:20.396Z,5.10
2022-12-26T05:33:21.104Z,4.89
2022-12-26T05:34:21.823Z,4.73
2022-12-26T05:35:22.858Z,4.94
2022-12-26T05:36:23.077Z,4.94
2022-12-26T05:37:23.786Z,5.00
2022-12-26T05:38:24.502Z,4.46
2022-12-26T05:39:25.244Z,4.51
2022-12-26T05:40:25.920Z,4.57
2022-12-26T05:41:26.626Z,4.08
2022-12-26T05:42:27.331Z,4.62
2022-12-26T05:43:28.043Z,4.19
2022-12-26T05:44:28.743Z,4.14
2022-12-26T05:45:29.855Z,4.14
2022-12-26T05:46:30.177Z,4.46
2022-12-26T05:47:30.840Z,4.24
2022-12-26T05:48:31.544Z,4.40
2022-12-26T05:49:32.265Z,3.92
2022-12-26T05:50:32.946Z,4.14
2022-12-26T05:51:33.648Z,4.30
2022-12-26T05:52:34.363Z,4.08
2022-12-26T05:53:35.064Z,4.35
2022-12-26T05:54:35.790Z,4.46
2022-12-26T05:55:36.864Z,3.92
2022-12-26T05:56:37.072Z,3.92
2022-12-26T05:57:37.785Z,3.92
2022-12-26T05:58:38.485Z,4.08
2022-12-26T05:59:39.195Z,4.40
2022-12-26T06:00:40.352Z,4.35
2022-12-26T06:01:40.744Z,3.92
2022-12-26T06:02:41.571Z,4.40
2022-12-26T06:03:42.400Z,3.97
2022-12-26T06:04:43.071Z,4.40
2022-12-26T06:05:43.769Z,4.40
2022-12-26T06:06:44.458Z,3.92
2022-12-26T06:07:45.187Z,3.92
2022-12-26T06:08:45.882Z,4.24
2022-12-26T06:09:46.599Z,4.46
2022-12-26T06:10:47.291Z,3.92
2022-12-26T06:11:49.084Z,4.35
2022-12-26T06:12:48.857Z,3.92
2022-12-26T06:13:49.571Z,4.19
2022-12-26T06:14:50.263Z,4.19
2022-12-26T06:15:51.470Z,4.19
2022-12-26T06:16:51.718Z,4.14
2022-12-26T06:17:52.376Z,4.19
2022-12-26T06:18:53.083Z,3.71
2022-12-26T06:19:53.808Z,3.81
2022-12-26T06:20:54.867Z,4.19
2022-12-26T06:21:55.069Z,3.87
2022-12-26T06:22:55.778Z,3.71
2022-12-26T06:23:56.727Z,3.71
2022-12-26T06:24:57.457Z,3.97
2022-12-26T06:25:58.355Z,3.71
2022-12-26T06:26:59.065Z,4.03
2022-12-26T06:27:59.766Z,4.19
2022-12-26T06:29:00.468Z,3.76
2022-12-26T06:30:01.201Z,4.03
2022-12-26T06:31:01.929Z,3.71
2022-12-26T06:32:02.777Z,3.54
2022-12-26T06:33:03.430Z,3.54
2022-12-26T06:34:04.151Z,3.54
2022-12-26T06:35:04.871Z,3.81
2022-12-26T06:36:05.557Z,3.33
2022-12-26T06:37:06.250Z,3.33
2022-12-26T06:38:06.957Z,3.81
2022-12-26T06:39:07.659Z,3.38
2022-12-26T06:40:08.380Z,3.81
2022-12-26T06:41:09.372Z,3.12
2022-12-26T06:42:09.571Z,3.38
2022-12-26T06:43:10.262Z,3.60
2022-12-26T06:44:17.746Z,3.33
2022-12-26T06:45:12.600Z,3.60
2022-12-26T06:46:12.363Z,3.60
2022-12-26T06:47:13.184Z,3.17
2022-12-26T06:48:13.838Z,3.49
2022-12-26T06:49:14.540Z,3.54
2022-12-26T06:50:15.272Z,3.33
2022-12-26T06:51:15.972Z,3.17
2022-12-26T06:52:16.672Z,3.54
2022-12-26T06:53:17.376Z,3.54
2022-12-26T06:54:18.108Z,3.44
2022-12-26T06:55:18.834Z,3.17
2022-12-26T06:56:19.884Z,3.60
2022-12-26T06:57:20.083Z,3.17
2022-12-26T06:58:20.787Z,3.60
2022-12-26T06:59:21.497Z,3.22
2022-12-26T07:00:22.204Z,2.95
2022-12-26T07:01:23.536Z,3.17
2022-12-26T07:02:23.862Z,3.38
2022-12-26T07:03:24.624Z,3.06
2022-12-26T07:04:25.330Z,3.01
2022-12-26T07:05:26.056Z,3.22
2022-12-26T07:06:26.741Z,3.33
2022-12-26T07:07:27.451Z,3.38
2022-12-26T07:08:28.142Z,3.44
2022-12-26T07:09:33.567Z,3.38
2022-12-26T07:10:30.513Z,3.22
2022-12-26T07:11:30.226Z,3.38
2022-12-26T07:12:30.910Z,2.79
2022-12-26T07:13:31.656Z,3.12
2022-12-26T07:14:32.358Z,2.85
2022-12-26T07:15:33.062Z,2.79
2022-12-26T07:16:33.921Z,2.90
2022-12-26T07:17:34.589Z,2.79
2022-12-26T07:18:35.296Z,3.22
2022-12-26T07:19:36.073Z,3.17
2022-12-26T07:20:36.755Z,3.17
2022-12-26T07:21:40.860Z,2.79
2022-12-26T07:22:38.268Z,3.22
2022-12-26T07:23:38.976Z,2.85
2022-12-26T07:24:39.679Z,3.12
2022-12-26T07:25:40.409Z,3.17
2022-12-26T07:26:41.366Z,2.79
2022-12-26T07:27:42.078Z,3.22
2022-12-26T07:28:42.793Z,2.79
2022-12-26T07:29:43.497Z,2.85
2022-12-26T07:30:44.205Z,3.22
2022-12-26T07:31:45.439Z,2.90
2022-12-26T07:32:45.629Z,2.69
2022-12-26T07:33:46.333Z,3.17
2022-12-26T07:34:47.038Z,2.58
2022-12-26T07:35:47.765Z,3.01
2022-12-26T07:36:48.870Z,3.01
2022-12-26T07:37:49.074Z,2.58
2022-12-26T07:38:49.780Z,3.01
2022-12-26T07:39:55.277Z,3.01
2022-12-26T07:40:52.105Z,2.42
2022-12-26T07:41:51.803Z,2.42
2022-12-26T07:42:52.512Z,2.74
2022-12-26T07:43:53.213Z,2.79
2022-12-26T07:44:53.925Z,2.79
2022-12-26T07:45:54.685Z,2.52
2022-12-26T07:46:55.367Z,2.85
2022-12-26T07:47:56.088Z,2.63
2022-12-26T07:48:56.785Z,2.42
2022-12-26T07:49:57.495Z,2.15
2022-12-26T07:50:58.223Z,2.90
2022-12-26T07:51:58.890Z,2.42
2022-12-26T07:52:59.590Z,2.69
2022-12-26T07:54:02.171Z,2.58
2022-12-26T07:55:00.904Z,2.63
2022-12-26T07:56:01.614Z,2.63
2022-12-26T07:57:29.881Z,2.26
2022-12-26T07:58:03.920Z,2.20
2022-12-26T07:59:03.630Z,2.58
2022-12-26T08:00:04.333Z,2.63
2022-12-26T08:01:05.189Z,2.63
2022-12-26T08:02:06.166Z,2.15
2022-12-26T08:03:08.133Z,2.20
2022-12-26T08:04:07.107Z,2.20
2022-12-26T08:05:07.813Z,2.69
2022-12-26T08:06:08.534Z,2.26
2022-12-26T08:07:09.375Z,2.36
2022-12-26T08:08:10.085Z,2.47
2022-12-26T08:09:10.784Z,2.26
2022-12-26T08:10:11.674Z,1.99
2022-12-26T08:11:12.386Z,2.04
2022-12-26T08:12:13.371Z,2.42
2022-12-26T08:13:13.578Z,1.99
2022-12-26T08:14:14.322Z,2.47
2022-12-26T08:15:15.002Z,2.04
2022-12-26T08:16:15.725Z,2.36
2022-12-26T08:17:16.501Z,1.83
2022-12-26T08:18:17.181Z,2.31
2022-12-26T08:19:17.892Z,2.20
2022-12-26T08:20:18.598Z,1.83
2022-12-26T08:21:19.344Z,2.20
2022-12-26T08:22:19.996Z,1.77
2022-12-26T08:23:20.703Z,1.77
2022-12-26T08:24:21.413Z,1.93
2022-12-26T08:25:22.401Z,1.88
2022-12-26T08:26:23.089Z,2.20
2022-12-26T08:27:23.790Z,1.83
2022-12-26T08:28:24.484Z,2.26
2022-12-26T08:29:25.202Z,2.15
2022-12-26T08:30:26.003Z,1.93
2022-12-26T08:31:26.753Z,1.88
2022-12-26T08:32:27.419Z,2.04
2022-12-26T08:33:28.120Z,2.26
2022-12-26T08:34:28.823Z,1.67
2022-12-26T08:35:29.531Z,2.04
2022-12-26T08:36:30.255Z,1.77
2022-12-26T08:37:30.910Z,1.61
2022-12-26T08:38:33.769Z,1.67
2022-12-26T08:39:32.271Z,1.99
2022-12-26T08:40:43.288Z,2.09
2022-12-26T08:41:34.597Z,2.04
2022-12-26T08:42:40.069Z,2.04
2022-12-26T08:44:36.511Z,1.99
2022-12-26T08:45:36.250Z,1.67
2022-12-26T08:46:36.928Z,1.45
2022-12-26T08:47:37.645Z,1.88
2022-12-26T08:48:38.348Z,1.50
2022-12-26T08:49:39.055Z,2.04
2022-12-26T08:50:41.580Z,2.04
2022-12-26T08:51:40.339Z,1.83
2022-12-26T08:52:41.002Z,1.83
2022-12-26T08:53:41.968Z,1.40
2022-12-26T08:54:42.667Z,1.56
2022-12-26T08:55:43.371Z,1.61
2022-12-26T08:56:44.099Z,1.45
2022-12-26T08:57:44.894Z,1.40
2022-12-26T08:58:45.676Z,1.93
2022-12-26T08:59:46.369Z,1.40
2022-12-26T09:00:50.434Z,1.67
2022-12-26T09:01:48.756Z,1.83
2022-12-26T09:02:48.637Z,1.72
2022-12-26T09:03:49.399Z,1.45
2022-12-26T09:04:50.112Z,1.45
2022-12-26T09:05:50.818Z,1.50
2022-12-26T09:06:51.545Z,1.61
2022-12-26T09:07:52.233Z,1.67
2022-12-26T09:08:52.944Z,1.50
2022-12-26T09:09:53.645Z,1.77
2022-12-26T09:10:54.360Z,1.45
2022-12-26T09:11:55.085Z,1.45
2022-12-26T09:12:55.780Z,1.45
2022-12-26T09:13:56.514Z,1.24
2022-12-26T09:14:57.224Z,1.45
2022-12-26T09:15:57.923Z,1.18
2022-12-26T09:16:58.696Z,1.67
2022-12-26T09:17:59.349Z,1.34
2022-12-26T09:19:00.068Z,1.24
2022-12-26T09:20:00.761Z,1.67
2022-12-26T09:21:01.620Z,1.45
2022-12-26T09:22:02.344Z,1.61
2022-12-26T09:23:03.006Z,1.34
2022-12-26T09:24:03.717Z,1.07
2022-12-26T09:25:04.423Z,1.02
2022-12-26T09:26:05.132Z,1.07
2022-12-26T09:27:05.862Z,1.24
2022-12-26T09:28:06.878Z,1.13
2022-12-26T09:29:07.092Z,1.24
2022-12-26T09:30:07.800Z,1.13
2022-12-26T09:31:08.553Z,1.50
2022-12-26T09:32:09.230Z,1.45
2022-12-26T09:33:09.940Z,1.02
2022-12-26T09:34:10.669Z,1.07
2022-12-26T09:35:11.354Z,1.45
2022-12-26T09:36:14.717Z,1.07
2022-12-26T09:37:12.933Z,1.18
2022-12-26T09:38:13.883Z,1.07
2022-12-26T09:39:14.102Z,1.07
2022-12-26T09:40:14.804Z,1.40
2022-12-26T09:41:15.523Z,1.40
2022-12-26T09:42:16.249Z,1.56
2022-12-26T09:43:17.383Z,1.07
2022-12-26T09:44:17.594Z,1.50
2022-12-26T09:45:18.297Z,1.24
2022-12-26T09:46:19.054Z,1.34
2022-12-26T09:47:19.772Z,1.18
2022-12-26T09:48:20.495Z,1.02
2022-12-26T09:49:21.214Z,1.02
2022-12-26T09:50:21.896Z,1.02
2022-12-26T09:51:22.611Z,1.07
2022-12-26T09:52:23.352Z,1.40
2022-12-26T09:53:24.008Z,1.24
2022-12-26T09:54:24.722Z,1.02
2022-12-26T09:55:25.428Z,0.86
2022-12-26T09:57:27.762Z,1.07
2022-12-26T09:58:27.900Z,1.24
2022-12-26T09:59:28.108Z,1.45
2022-12-26T10:00:28.814Z,1.07
2022-12-26T10:01:29.617Z,0.86
2022-12-26T10:02:30.391Z,1.29
2022-12-26T10:03:31.075Z,1.24
2022-12-26T10:04:31.853Z,0.86
2022-12-26T10:05:32.518Z,1.29
2022-12-26T10:06:33.222Z,1.29
2022-12-26T10:07:33.964Z,1.02
2022-12-26T10:08:34.884Z,1.18
2022-12-26T10:09:35.595Z,1.13
2022-12-26T10:10:36.295Z,0.91
2022-12-26T10:11:37.003Z,0.86
2022-12-26T10:12:37.751Z,0.91
2022-12-26T10:13:38.889Z,0.91
2022-12-26T10:14:39.134Z,1.24
2022-12-26T10:15:39.848Z,0.86
2022-12-26T10:16:40.505Z,0.86
2022-12-26T10:17:41.213Z,1.18
2022-12-26T10:18:41.939Z,1.18
2022-12-26T10:19:42.648Z,1.29
2022-12-26T10:20:43.351Z,1.29
2022-12-26T10:21:44.062Z,0.97
2022-12-26T10:22:44.790Z,1.24
2022-12-26T10:23:45.899Z,1.13
2022-12-26T10:24:46.117Z,0.97
2022-12-26T10:25:46.827Z,1.02
2022-12-26T10:26:47.528Z,0.91
2022-12-26T10:27:48.258Z,1.29
2022-12-26T10:28:48.955Z,1.13
2022-12-26T10:29:49.654Z,1.24
2022-12-26T10:30:50.400Z,1.02
2022-12-26T10:31:51.071Z,0.97
2022-12-26T10:32:51.784Z,1.24
2022-12-26T10:33:52.500Z,1.24
2022-12-26T10:34:53.213Z,0.86
2022-12-26T10:35:53.925Z,0.86
2022-12-26T10:36:54.647Z,0.86
2022-12-26T10:37:55.374Z,1.02
2022-12-26T10:38:56.021Z,1.07
2022-12-26T10:39:56.520Z,1.24
2022-12-26T10:40:57.243Z,1.02
2022-12-26T10:41:57.939Z,0.91
2022-12-26T10:42:58.666Z,0.91
2022-12-26T10:43:59.395Z,0.86
2022-12-26T10:45:00.122Z,0.97
2022-12-26T10:46:00.882Z,0.81
2022-12-26T10:47:01.529Z,0.86
2022-12-26T10:48:02.228Z,1.07
2022-12-26T10:49:03.391Z,1.29
2022-12-26T10:50:03.597Z,0.81
2022-12-26T10:51:04.308Z,1.24
2022-12-26T10:52:05.005Z,1.24
2022-12-26T10:53:05.732Z,0.86
2022-12-26T10:54:06.390Z,0.81
2022-12-26T10:55:28.323Z,0.86
2022-12-26T10:56:13.219Z,1.24
2022-12-26T10:57:09.370Z,0.86
2022-12-26T10:58:09.095Z,0.64
2022-12-26T10:59:09.803Z,0.86
2022-12-26T11:00:10.509Z,0.86
2022-12-26T11:01:11.292Z,0.86
2022-12-26T11:02:12.041Z,1.07
2022-12-26T11:03:13.010Z,0.86
2022-12-26T11:04:13.716Z,1.13
2022-12-26T11:05:40.340Z,0.91
2022-12-26T11:06:16.022Z,0.91
2022-12-26T11:07:15.731Z,0.97
2022-12-26T11:08:16.471Z,1.07
2022-12-26T11:09:17.394Z,1.07
2022-12-26T11:10:18.216Z,0.75
2022-12-26T11:11:18.888Z,0.70
2022-12-26T11:12:19.595Z,0.81
2022-12-26T11:13:20.326Z,1.24
2022-12-26T11:14:21.024Z,1.18
2022-12-26T11:15:21.727Z,1.07
2022-12-26T11:16:22.478Z,1.18
2022-12-26T11:17:23.141Z,1.07
2022-12-26T11:18:23.845Z,1.13
2022-12-26T11:19:24.567Z,1.02
2022-12-26T11:20:25.274Z,1.24
2022-12-26T11:21:25.979Z,1.07
2022-12-26T11:22:26.712Z,1.07
2022-12-26T11:23:27.420Z,0.91
2022-12-26T11:24:28.397Z,1.02
2022-12-26T11:25:28.606Z,1.07
2022-12-26T11:26:29.313Z,0.70
2022-12-26T11:27:30.023Z,1.02
2022-12-26T11:28:30.744Z,1.07
2022-12-26T11:29:31.440Z,1.07
2022-12-26T11:30:32.151Z,1.02
2022-12-26T11:31:32.886Z,1.02
2022-12-26T11:32:33.587Z,0.81
2022-12-26T11:33:34.293Z,0.91
2022-12-26T11:34:35.012Z,1.07
2022-12-26T11:35:35.723Z,1.02
2022-12-26T11:36:36.443Z,1.07
2022-12-26T11:37:37.147Z,0.70
2022-12-26T11:38:44.455Z,0.70
2022-12-26T11:39:39.893Z,0.64
2022-12-26T11:40:39.104Z,0.86
2022-12-26T11:41:39.945Z,0.91
2022-12-26T11:42:40.615Z,1.02
2022-12-26T11:43:41.199Z,0.75
2022-12-26T11:44:42.396Z,0.75
2022-12-26T11:45:42.604Z,0.81
2022-12-26T11:46:43.406Z,1.13
2022-12-26T11:47:44.097Z,0.75
2022-12-26T11:48:44.810Z,1.02
2022-12-26T11:49:45.895Z,0.81
2022-12-26T11:50:46.100Z,1.02
2022-12-26T11:51:46.817Z,1.18
2022-12-26T11:52:47.561Z,0.64
2022-12-26T11:53:48.294Z,1.07
2022-12-26T11:54:48.963Z,0.70
2022-12-26T11:55:49.670Z,1.07
2022-12-26T11:56:50.379Z,1.07
2022-12-26T11:57:55.332Z,1.07
2022-12-26T11:58:52.706Z,0.75
2022-12-26T11:59:52.908Z,0.86
2022-12-26T12:00:53.115Z,0.70
2022-12-26T12:01:53.938Z,0.70
2022-12-26T12:02:54.718Z,0.70
2022-12-26T12:03:55.392Z,0.97
2022-12-26T12:04:56.097Z,0.75
2022-12-26T12:05:56.796Z,0.75
2022-12-26T12:06:57.502Z,1.02
2022-12-26T12:07:58.210Z,0.64
2022-12-26T12:09:05.410Z,0.70
2022-12-26T12:10:00.551Z,0.70
2022-12-26T12:11:00.231Z,1.07
2022-12-26T12:12:00.943Z,1.07
2022-12-26T12:13:01.856Z,0.81
2022-12-26T12:14:02.585Z,0.75
2022-12-26T12:15:03.283Z,0.70
2022-12-26T12:16:04.050Z,1.07
2022-12-26T12:17:04.738Z,0.75
2022-12-26T12:18:05.440Z,0.70
2022-12-26T12:19:06.174Z,1.07
2022-12-26T12:20:06.897Z,1.07
2022-12-26T12:21:07.614Z,0.70
2022-12-26T12:22:08.311Z,0.70
2022-12-26T12:23:09.016Z,1.07
2022-12-26T12:24:09.748Z,0.70
2022-12-26T12:25:10.910Z,0.70
2022-12-26T12:26:11.098Z,0.81
2022-12-26T12:27:11.929Z,0.59
2022-12-26T12:28:12.633Z,0.48
2022-12-26T12:29:13.362Z,1.07
2022-12-26T12:30:14.223Z,1.02
2022-12-26T12:31:14.966Z,0.81
2022-12-26T12:32:15.624Z,1.02
2022-12-26T12:33:16.339Z,0.59
2022-12-26T12:34:17.036Z,1.02
2022-12-26T12:35:17.748Z,1.02
2022-12-26T12:36:18.474Z,0.86
2022-12-26T12:37:19.175Z,1.13
2022-12-26T12:38:19.884Z,0.70
2022-12-26T12:39:20.629Z,0.48
2022-12-26T12:40:21.285Z,0.48
2022-12-26T12:41:21.990Z,0.59
2022-12-26T12:42:22.694Z,0.48
2022-12-26T12:43:23.405Z,0.48
2022-12-26T12:44:24.125Z,0.81
2022-12-26T12:45:24.956Z,0.86
2022-12-26T12:46:25.615Z,0.64
2022-12-26T12:47:26.329Z,0.70
2022-12-26T12:48:27.053Z,0.70
2022-12-26T12:49:27.767Z,0.48
2022-12-26T12:50:28.467Z,0.48
2022-12-26T12:51:29.176Z,0.70
2022-12-26T12:52:29.879Z,0.48
2022-12-26T12:53:30.589Z,0.64
2022-12-26T12:54:31.309Z,1.07
2022-12-26T12:55:31.984Z,0.48
2022-12-26T12:56:37.004Z,0.54
2022-12-26T12:57:34.288Z,0.86
2022-12-26T12:58:34.026Z,0.59
2022-12-26T12:59:34.754Z,0.54
2022-12-26T13:00:35.474Z,0.48
2022-12-26T13:01:36.314Z,0.75
2022-12-26T13:02:37.130Z,0.48
2022-12-26T13:03:37.895Z,0.54
2022-12-26T13:04:38.537Z,0.86
2022-12-26T13:05:39.250Z,0.54
2022-12-26T13:06:39.955Z,0.86
2022-12-26T13:07:47.008Z,0.86
2022-12-26T13:08:42.266Z,0.70
2022-12-26T13:09:41.989Z,0.43
2022-12-26T13:10:42.691Z,0.81
2022-12-26T13:11:43.418Z,0.48
2022-12-26T13:12:44.119Z,0.86
2022-12-26T13:13:49.977Z,0.48
2022-12-26T13:14:46.434Z,0.38
2022-12-26T13:15:46.415Z,0.75
2022-12-26T13:16:46.682Z,0.43
2022-12-26T13:17:47.360Z,0.86
2022-12-26T13:18:48.070Z,0.81
2022-12-26T13:19:51.952Z,0.48
2022-12-26T13:20:49.774Z,1.13
2022-12-26T13:21:50.463Z,0.70
2022-12-26T13:22:51.172Z,0.43